Time;durP1;ratioP1;P1;durP2;ratioP2;P2;SDS_P1;SDS_P2;PMS_P1;PMS_P2;Temp;Humidity;BMP_temperature;BMP_pressure;BME280_temperature;BME280_humidity;BME280_pressure;Samples;Min_cycle;Max_cycle;Signal;HPM_P1;HPM_P2
2022/03/24 00:01:40;;;;;;;70.47;40.63;;;6.10;99.90;;;;;;4939341;28;20567;-76
2022/03/24 00:04:06;;;;;;;76.70;42.58;;;6.00;99.90;;;;;;4955806;28;20414;-77
2022/03/24 00:06:32;;;;;;;72.95;44.15;;;6.10;99.90;;;;;;4955708;28;20109;-77
2022/03/24 00:08:58;;;;;;;68.45;40.58;;;6.00;99.90;;;;;;4955787;28;20047;-75
2022/03/24 00:11:27;;;;;;;74.03;41.08;;;6.00;99.90;;;;;;4939579;28;20046;-76
2022/03/24 00:13:56;;;;;;;76.75;43.63;;;5.90;99.90;;;;;;4939139;28;20055;-76
2022/03/24 00:16:26;;;;;;;69.72;42.00;;;5.90;99.90;;;;;;4923736;28;20054;-76
2022/03/24 00:19:01;;;;;;;81.90;46.95;;;5.90;99.90;;;;;;4926819;28;20063;-76
2022/03/24 00:21:27;;;;;;;94.43;52.95;;;5.90;99.90;;;;;;4939702;28;20061;-76
2022/03/24 00:24:03;;;;;;;93.55;51.70;;;5.90;99.90;;;;;;4955192;28;20406;-77
2022/03/24 00:26:31;;;;;;;101.90;56.03;;;6.00;99.90;;;;;;4954708;28;20059;-76
2022/03/24 00:29:02;;;;;;;107.40;61.22;;;6.10;99.90;;;;;;4955069;28;20417;-76
2022/03/24 00:31:28;;;;;;;100.28;56.88;;;6.20;99.90;;;;;;4939286;28;20047;-76
2022/03/24 00:33:55;;;;;;;90.68;52.78;;;6.20;99.90;;;;;;4955977;28;20062;-76
2022/03/24 00:36:24;;;;;;;85.60;49.78;;;6.20;99.90;;;;;;4958702;28;20054;-74
2022/03/24 00:38:55;;;;;;;90.00;51.58;;;6.20;99.90;;;;;;4956017;28;20059;-76
2022/03/24 00:41:25;;;;;;;82.18;48.58;;;6.20;99.90;;;;;;4971969;28;20050;-76
2022/03/24 00:43:51;;;;;;;87.32;49.42;;;6.20;99.90;;;;;;4955173;28;20490;-76
2022/03/24 00:46:23;;;;;;;88.32;51.38;;;6.10;99.90;;;;;;4938356;28;20114;-76
2022/03/24 00:48:54;;;;;;;73.45;43.92;;;6.10;99.90;;;;;;4923673;28;20094;-76
2022/03/24 00:51:36;;;;;;;77.20;46.08;;;6.00;99.90;;;;;;4955615;28;20051;-76
2022/03/24 00:54:03;;;;;;;85.15;47.47;;;6.10;99.90;;;;;;4955486;28;20055;-76
2022/03/24 00:56:29;;;;;;;88.22;48.42;;;6.00;99.90;;;;;;4923769;28;20047;-77
2022/03/24 00:58:55;;;;;;;91.57;51.33;;;6.00;99.90;;;;;;4955239;28;20568;-77
2022/03/24 01:01:21;;;;;;;81.15;46.55;;;6.00;99.90;;;;;;4954926;28;20055;-75
2022/03/24 01:03:48;;;;;;;92.85;52.17;;;6.00;99.90;;;;;;4939104;28;20046;-77
2022/03/24 01:06:18;;;;;;;85.93;50.17;;;5.90;99.90;;;;;;4955514;28;20046;-77
2022/03/24 01:08:50;;;;;;;81.53;46.40;;;5.90;99.90;;;;;;4955576;28;20090;-77
2022/03/24 01:11:19;;;;;;;78.60;45.47;;;5.90;99.90;;;;;;4976904;28;20528;-77
2022/03/24 01:13:45;;;;;;;84.40;47.08;;;5.90;99.90;;;;;;4958859;28;20057;-77
2022/03/24 01:16:12;;;;;;;89.40;48.38;;;5.90;99.90;;;;;;4959042;28;20062;-77
2022/03/24 01:18:39;;;;;;;83.03;47.53;;;5.90;99.90;;;;;;4946979;28;20086;-76
2022/03/24 01:21:16;;;;;;;82.40;48.42;;;5.90;99.90;;;;;;4961614;28;20065;-76
2022/03/24 01:23:45;;;;;;;80.47;45.58;;;5.90;99.90;;;;;;4958551;28;20062;-75
2022/03/24 01:26:16;;;;;;;86.97;49.75;;;5.80;99.90;;;;;;4958768;28;20395;-76
2022/03/24 01:28:42;;;;;;;101.97;54.72;;;5.80;99.90;;;;;;4958217;28;20502;-76
2022/03/24 01:31:09;;;;;;;78.47;46.28;;;5.90;99.90;;;;;;4976172;28;20173;-76
2022/03/24 01:33:37;;;;;;;91.45;50.78;;;5.80;99.90;;;;;;4974832;28;20121;-77
2022/03/24 01:36:24;;;;;;;88.50;50.15;;;5.80;99.90;;;;;;4958899;28;20061;-76
2022/03/24 01:38:51;;;;;;;87.18;49.53;;;5.80;99.90;;;;;;4957387;28;20050;-77
2022/03/24 01:41:21;;;;;;;93.88;51.83;;;5.80;99.90;;;;;;4957997;28;20062;-76
2022/03/24 01:43:47;;;;;;;78.97;44.80;;;5.80;99.90;;;;;;4975894;28;20046;-77
2022/03/24 01:46:13;;;;;;;84.75;47.50;;;5.80;99.90;;;;;;4941972;28;20605;-75
2022/03/24 01:48:41;;;;;;;77.80;44.65;;;5.70;99.90;;;;;;4958044;28;20054;-77
2022/03/24 01:51:29;;;;;;;87.95;48.28;;;5.70;99.90;;;;;;4957705;28;20077;-77
2022/03/24 01:53:59;;;;;;;86.53;46.75;;;5.60;99.90;;;;;;4956897;28;20066;-77
2022/03/24 01:56:27;;;;;;;76.80;44.97;;;5.60;99.90;;;;;;4927756;28;20058;-77
2022/03/24 01:58:55;;;;;;;79.45;45.53;;;5.60;99.90;;;;;;4945540;28;20058;-77
2022/03/24 02:01:34;;;;;;;86.72;47.65;;;5.60;99.90;;;;;;4957946;28;20068;-77
2022/03/24 02:04:19;;;;;;;83.07;45.30;;;5.60;99.90;;;;;;4960898;28;20058;-76
2022/03/24 02:06:46;;;;;;;82.63;46.15;;;5.50;99.90;;;;;;4957892;28;20406;-77
2022/03/24 02:09:13;;;;;;;77.22;45.97;;;5.50;99.90;;;;;;4942116;28;20090;-77
2022/03/24 02:11:40;;;;;;;77.68;44.60;;;5.50;99.90;;;;;;4957775;28;20054;-77
2022/03/24 02:14:08;;;;;;;79.57;43.28;;;5.40;99.90;;;;;;4958194;28;20054;-76
2022/03/24 02:16:38;;;;;;;70.78;41.22;;;5.40;99.90;;;;;;4925945;28;20494;-77
2022/03/24 02:19:23;;;;;;;70.85;41.22;;;5.30;99.90;;;;;;4958455;28;20166;-77
2022/03/24 02:21:55;;;;;;;73.13;42.25;;;5.30;99.90;;;;;;4940779;28;20133;-76
2022/03/24 02:24:23;;;;;;;80.40;45.63;;;5.30;99.90;;;;;;4957640;28;20062;-76
2022/03/24 02:26:54;;;;;;;84.35;46.55;;;5.30;99.90;;;;;;4957526;28;20387;-77
2022/03/24 02:29:25;;;;;;;74.53;44.00;;;5.20;99.90;;;;;;4957645;28;20053;-77
2022/03/24 02:31:52;;;;;;;74.10;43.33;;;5.20;99.90;;;;;;4975029;28;20055;-77
2022/03/24 02:34:38;;;;;;;78.38;42.72;;;5.20;99.90;;;;;;4958741;28;20102;-76
2022/03/24 02:37:09;;;;;;;72.82;41.92;;;5.10;99.90;;;;;;4963875;28;20057;-77
2022/03/24 02:39:42;;;;;;;74.20;41.53;;;5.10;99.90;;;;;;4977796;28;20133;-75
2022/03/24 02:42:14;;;;;;;71.45;41.35;;;5.10;99.90;;;;;;4957344;28;20142;-76
2022/03/24 02:44:43;;;;;;;73.93;41.45;;;5.00;99.90;;;;;;4956550;28;20047;-75
2022/03/24 02:47:11;;;;;;;77.75;45.85;;;5.00;99.90;;;;;;4941113;28;20058;-77
2022/03/24 02:50:03;;;;;;;74.30;41.22;;;5.00;99.90;;;;;;4961171;28;20061;-77
2022/03/24 02:52:31;;;;;;;80.88;42.85;;;5.00;99.90;;;;;;4924901;28;20062;-77
2022/03/24 02:55:04;;;;;;;68.07;39.53;;;4.90;99.90;;;;;;4957132;28;20061;-76
2022/03/24 02:57:31;;;;;;;66.85;38.70;;;4.90;99.90;;;;;;4955821;28;20132;-76
2022/03/24 02:59:57;;;;;;;73.68;42.22;;;4.90;99.90;;;;;;4956584;28;20086;-76
2022/03/24 03:02:32;;;;;;;81.53;44.33;;;4.90;99.90;;;;;;4941446;28;20055;-76
2022/03/24 03:04:57;;;;;;;71.35;40.78;;;4.90;99.90;;;;;;4940942;28;20643;-77
2022/03/24 03:07:23;;;;;;;69.70;39.65;;;4.80;99.90;;;;;;4941202;28;20128;-77
2022/03/24 03:09:49;;;;;;;80.78;45.50;;;4.80;99.90;;;;;;4957104;28;20050;-77
2022/03/24 03:12:16;;;;;;;69.03;39.30;;;4.70;99.90;;;;;;4957654;28;20057;-77
2022/03/24 03:14:42;;;;;;;74.45;42.25;;;4.70;99.90;;;;;;4943147;28;20047;-76
2022/03/24 03:17:15;;;;;;;71.07;40.35;;;4.70;99.90;;;;;;4978661;28;20134;-76
2022/03/24 03:19:43;;;;;;;75.00;39.85;;;4.70;99.90;;;;;;4965227;28;20108;-76
2022/03/24 03:22:10;;;;;;;81.10;44.47;;;4.70;99.90;;;;;;4947241;28;20053;-77
2022/03/24 03:24:39;;;;;;;77.22;41.83;;;4.60;99.90;;;;;;4973751;28;20557;-77
2022/03/24 03:27:15;;;;;;;72.22;40.30;;;4.70;99.90;;;;;;4956428;28;20054;-77
2022/03/24 03:29:44;;;;;;;81.88;45.50;;;4.60;99.90;;;;;;4956320;28;20145;-77
2022/03/24 03:32:11;;;;;;;78.90;44.20;;;4.60;99.90;;;;;;4956655;28;20141;-77
2022/03/24 03:34:38;;;;;;;80.05;43.60;;;4.60;99.90;;;;;;4939488;28;20491;-77
2022/03/24 03:37:04;;;;;;;83.95;44.28;;;4.60;99.90;;;;;;4973752;28;20517;-76
2022/03/24 03:39:30;;;;;;;67.78;39.65;;;4.60;99.90;;;;;;4956104;28;20415;-77
2022/03/24 03:41:57;;;;;;;75.55;41.10;;;4.50;99.90;;;;;;4956267;28;20062;-78
2022/03/24 03:44:23;;;;;;;64.88;36.95;;;4.50;99.90;;;;;;4956147;28;20055;-78
2022/03/24 03:46:55;;;;;;;73.82;41.45;;;4.50;99.90;;;;;;4954015;28;20387;-77
2022/03/24 03:49:24;;;;;;;83.35;45.30;;;4.50;99.90;;;;;;4956240;28;20058;-77
2022/03/24 03:51:50;;;;;;;74.22;42.13;;;4.50;99.90;;;;;;4955754;28;20070;-78
2022/03/24 03:54:16;;;;;;;77.82;42.97;;;4.40;99.90;;;;;;4973655;28;20047;-77
2022/03/24 03:56:42;;;;;;;76.22;41.90;;;4.40;99.90;;;;;;4955649;28;20054;-76
2022/03/24 03:59:08;;;;;;;72.03;39.42;;;4.40;99.90;;;;;;4956251;28;20108;-78
2022/03/24 04:01:34;;;;;;;82.30;44.60;;;4.40;99.90;;;;;;4956392;28;20090;-77
2022/03/24 04:04:00;;;;;;;76.10;42.38;;;4.40;99.90;;;;;;4941909;28;20050;-77
2022/03/24 04:06:27;;;;;;;65.78;36.92;;;4.30;99.90;;;;;;4933034;28;20059;-77
2022/03/24 04:09:05;;;;;;;64.82;36.50;;;4.40;99.90;;;;;;4945799;28;20061;-77
2022/03/24 04:11:31;;;;;;;63.67;36.05;;;4.30;99.90;;;;;;4939751;28;20106;-78
2022/03/24 04:13:58;;;;;;;78.85;43.13;;;4.30;99.90;;;;;;4923868;28;20046;-76
2022/03/24 04:16:23;;;;;;;71.90;41.40;;;4.30;99.90;;;;;;4939538;28;20553;-77
2022/03/24 04:18:49;;;;;;;71.45;40.10;;;4.30;99.90;;;;;;4955143;28;20058;-77
2022/03/24 04:21:30;;;;;;;77.35;43.63;;;4.30;99.90;;;;;;4939469;28;20051;-77
2022/03/24 04:23:56;;;;;;;69.22;38.38;;;4.30;99.90;;;;;;4955821;28;20058;-78
2022/03/24 04:26:23;;;;;;;67.82;40.17;;;4.20;99.90;;;;;;4939434;28;20153;-77
2022/03/24 04:28:49;;;;;;;67.22;38.78;;;4.20;99.90;;;;;;4955489;28;20058;-78
2022/03/24 04:31:14;;;;;;;62.95;37.13;;;4.20;99.90;;;;;;4955504;28;20065;-78
2022/03/24 04:33:40;;;;;;;59.15;36.60;;;4.10;99.90;;;;;;4939713;28;20063;-78
2022/03/24 04:36:25;;;;;;;56.55;32.70;;;4.10;99.90;;;;;;4958496;28;20101;-78
2022/03/24 04:38:50;;;;;;;48.25;30.83;;;4.10;99.90;;;;;;4955816;28;20486;-78
2022/03/24 04:41:16;;;;;;;46.05;29.70;;;4.10;99.90;;;;;;4956050;28;20047;-77
2022/03/24 04:43:45;;;;;;;56.95;32.50;;;4.10;99.90;;;;;;4955027;28;20055;-77
2022/03/24 04:46:12;;;;;;;61.25;35.15;;;4.10;99.90;;;;;;4942525;28;20117;-77
2022/03/24 04:48:38;;;;;;;60.30;36.25;;;4.00;99.90;;;;;;4943465;28;20051;-78
2022/03/24 04:51:07;;;;;;;58.35;35.97;;;4.00;99.90;;;;;;4943722;28;20477;-78
2022/03/24 04:53:39;;;;;;;68.28;38.42;;;4.00;99.90;;;;;;4977862;28;20047;-78
2022/03/24 04:56:08;;;;;;;65.40;38.33;;;4.00;99.90;;;;;;4966827;28;20074;-79
2022/03/24 04:58:34;;;;;;;62.58;36.38;;;4.00;99.90;;;;;;4962566;28;20039;-77
2022/03/24 05:01:01;;;;;;;65.55;36.90;;;4.00;99.90;;;;;;4936274;29;20047;-77
2022/03/24 05:03:27;;;;;;;55.25;33.80;;;3.90;99.90;;;;;;4940338;29;20058;-77
2022/03/24 05:05:54;;;;;;;59.97;34.40;;;3.90;99.90;;;;;;4955882;29;20053;-77
2022/03/24 05:08:23;;;;;;;74.72;39.60;;;4.00;99.90;;;;;;4939743;29;20146;-77
2022/03/24 05:10:49;;;;;;;69.15;38.08;;;3.90;99.90;;;;;;4957011;29;20138;-78
2022/03/24 05:13:14;;;;;;;59.15;34.90;;;3.90;99.90;;;;;;4955723;28;20051;-77
2022/03/24 05:15:40;;;;;;;69.10;37.70;;;3.90;99.90;;;;;;4955776;29;20067;-77
2022/03/24 05:18:06;;;;;;;73.25;39.67;;;3.90;99.90;;;;;;4923427;29;20047;-77
2022/03/24 05:20:33;;;;;;;68.97;38.25;;;3.90;99.90;;;;;;4939480;29;20089;-78
2022/03/24 05:22:59;;;;;;;60.55;34.20;;;3.90;99.90;;;;;;4957254;29;20066;-78
2022/03/24 05:25:32;;;;;;;63.17;35.92;;;3.90;99.90;;;;;;4971307;28;20048;-78
2022/03/24 05:27:57;;;;;;;65.32;38.35;;;3.80;99.90;;;;;;4955863;29;20047;-78
2022/03/24 05:30:32;;;;;;;76.30;39.90;;;3.90;99.90;;;;;;4939725;29;20113;-78
2022/03/24 05:33:03;;;;;;;62.13;35.53;;;3.90;99.90;;;;;;4923452;29;20055;-77
2022/03/24 05:35:32;;;;;;;57.22;34.55;;;3.90;99.90;;;;;;4961278;29;20466;-75
2022/03/24 05:38:05;;;;;;;66.38;38.08;;;3.80;99.90;;;;;;4948924;29;20058;-77
2022/03/24 05:40:31;;;;;;;58.65;34.60;;;3.90;99.90;;;;;;4945504;29;20055;-78
2022/03/24 05:43:02;;;;;;;83.57;42.95;;;3.80;99.90;;;;;;4942993;29;20062;-77
2022/03/24 05:45:28;;;;;;;89.80;47.20;;;3.80;99.90;;;;;;4956828;29;20562;-79
2022/03/24 05:47:54;;;;;;;87.70;46.75;;;3.90;99.90;;;;;;4971166;28;20563;-77
2022/03/24 05:50:21;;;;;;;87.82;45.00;;;3.90;99.90;;;;;;4956015;29;20522;-77
2022/03/24 05:52:49;;;;;;;100.47;52.15;;;3.90;99.90;;;;;;4939112;29;20043;-77
2022/03/24 05:55:16;;;;;;;98.80;50.90;;;3.90;99.90;;;;;;4956633;29;20051;-77
2022/03/24 05:57:44;;;;;;;112.78;57.00;;;4.00;99.90;;;;;;4954040;28;20463;-77
2022/03/24 06:00:12;;;;;;;89.78;48.15;;;4.10;99.90;;;;;;4957298;28;20063;-77
2022/03/24 06:02:39;;;;;;;112.25;58.63;;;4.10;99.90;;;;;;4958344;28;20054;-78
2022/03/24 06:05:05;;;;;;;115.72;57.90;;;4.20;99.90;;;;;;4958171;28;20137;-78
2022/03/24 06:07:34;;;;;;;104.25;55.47;;;4.30;99.90;;;;;;4942465;28;20130;-78
2022/03/24 06:10:09;;;;;;;128.57;61.83;;;4.30;99.90;;;;;;4957774;28;20108;-78
2022/03/24 06:12:40;;;;;;;127.68;63.20;;;4.40;99.90;;;;;;4942154;28;20054;-78
2022/03/24 06:15:06;;;;;;;149.25;70.45;;;4.50;99.90;;;;;;4957806;28;20059;-78
2022/03/24 06:17:33;;;;;;;164.93;74.05;;;4.60;99.90;;;;;;4957587;28;20498;-78
2022/03/24 06:20:15;;;;;;;155.52;72.82;;;4.70;99.90;;;;;;4937157;29;20056;-78
2022/03/24 06:23:03;;;;;;;155.35;75.28;;;4.90;99.90;;;;;;4908908;29;20055;-78
2022/03/24 06:25:29;;;;;;;164.63;72.80;;;5.00;99.90;;;;;;4902754;29;20570;-77
2022/03/24 06:28:00;;;;;;;176.73;80.68;;;5.10;99.90;;;;;;4918503;29;20102;-77
2022/03/24 06:30:26;;;;;;;186.25;86.95;;;5.20;99.90;;;;;;4918189;29;20062;-77
2022/03/24 06:32:56;;;;;;;177.13;78.63;;;5.40;99.90;;;;;;4919107;29;20392;-76
2022/03/24 06:35:24;;;;;;;172.38;81.38;;;5.50;99.90;;;;;;4918250;29;20115;-78
2022/03/24 06:38:00;;;;;;;181.30;85.70;;;5.60;99.90;;;;;;4934241;29;20114;-77
2022/03/24 06:40:26;;;;;;;172.32;81.40;;;5.80;99.90;;;;;;4934044;29;20053;-77
2022/03/24 06:42:52;;;;;;;178.35;84.38;;;5.90;99.90;;;;;;4934305;29;20615;-77
2022/03/24 06:45:19;;;;;;;172.52;81.78;;;6.00;99.90;;;;;;4902409;29;20400;-78
2022/03/24 06:47:45;;;;;;;163.38;79.18;;;6.10;99.90;;;;;;4934082;29;20061;-77
2022/03/24 06:50:13;;;;;;;176.75;82.32;;;6.20;99.90;;;;;;4920694;28;20048;-77
2022/03/24 06:52:40;;;;;;;176.40;84.57;;;6.40;99.90;;;;;;4974929;28;20055;-78
2022/03/24 06:55:07;;;;;;;150.40;78.32;;;6.50;99.90;;;;;;4957049;28;20064;-78
2022/03/24 06:57:42;;;;;;;161.45;79.35;;;6.60;99.90;;;;;;4940977;28;20046;-78
2022/03/24 07:00:16;;;;;;;166.98;79.20;;;6.80;99.90;;;;;;4974764;28;20060;-77
2022/03/24 07:02:43;;;;;;;165.65;82.18;;;6.90;99.90;;;;;;4957513;28;20086;-77
2022/03/24 07:05:11;;;;;;;150.80;75.72;;;7.10;99.90;;;;;;4956946;28;20054;-78
2022/03/24 07:07:38;;;;;;;142.27;71.45;;;7.30;99.90;;;;;;4974195;28;20529;-78
2022/03/24 07:10:19;;;;;;;151.02;77.43;;;7.40;99.90;;;;;;4972835;28;20054;-77
2022/03/24 07:12:46;;;;;;;135.85;72.43;;;7.60;99.90;;;;;;4956861;28;20051;-77
2022/03/24 07:15:14;;;;;;;136.38;70.40;;;7.80;99.90;;;;;;4956261;28;20058;-77
2022/03/24 07:17:46;;;;;;;120.70;67.00;;;8.00;99.90;;;;;;4959639;28;20129;-78
2022/03/24 07:20:12;;;;;;;131.52;68.47;;;8.10;99.90;;;;;;4945493;28;20416;-77
2022/03/24 07:22:39;;;;;;;127.95;69.57;;;8.30;99.90;;;;;;4955220;28;20511;-78
2022/03/24 07:25:07;;;;;;;128.13;69.85;;;8.50;99.90;;;;;;4941418;28;20078;-78
2022/03/24 07:27:35;;;;;;;121.22;65.85;;;8.60;99.90;;;;;;4959909;28;20051;-78
2022/03/24 07:30:23;;;;;;;119.18;66.45;;;8.80;99.90;;;;;;4950966;28;20059;-77
2022/03/24 07:32:49;;;;;;;114.60;62.40;;;9.00;99.90;;;;;;4947140;28;20131;-77
2022/03/24 07:35:18;;;;;;;114.63;63.28;;;9.10;99.90;;;;;;4974756;28;20062;-77
2022/03/24 07:37:47;;;;;;;108.38;62.58;;;9.30;99.90;;;;;;4940503;28;20047;-77
2022/03/24 07:40:34;;;;;;;109.85;59.65;;;9.50;99.90;;;;;;4931775;28;20050;-77
2022/03/24 07:43:00;;;;;;;111.43;60.80;;;9.60;99.90;;;;;;4939991;28;20507;-78
2022/03/24 07:45:26;;;;;;;107.15;61.50;;;9.80;99.90;;;;;;4955765;28;20051;-78
2022/03/24 07:48:27;;;;;;;102.38;61.30;;;9.90;99.90;;;;;;4973201;28;20058;-78
2022/03/24 07:50:56;;;;;;;102.13;59.35;;;10.10;99.90;;;;;;4955717;28;20512;-78
2022/03/24 07:53:46;;;;;;;105.18;60.80;;;10.30;99.90;;;;;;4923802;28;20116;-78
2022/03/24 07:56:16;;;;;;;101.10;54.20;;;10.40;99.90;;;;;;4956568;28;20054;-78
2022/03/24 07:58:44;;;;;;;92.55;54.15;;;10.60;99.90;;;;;;4956171;28;20047;-77
2022/03/24 08:01:19;;;;;;;101.35;56.67;;;10.70;99.90;;;;;;4955055;28;20138;-78
2022/03/24 08:03:46;;;;;;;96.32;56.55;;;10.90;99.90;;;;;;4940193;28;20105;-78
2022/03/24 08:06:35;;;;;;;98.45;56.40;;;11.00;99.90;;;;;;4955809;28;20589;-78
2022/03/24 08:09:03;;;;;;;94.60;51.17;;;11.10;99.90;;;;;;4939803;28;20066;-78
2022/03/24 08:11:30;;;;;;;93.68;52.47;;;11.20;99.90;;;;;;4955386;28;20142;-78
2022/03/24 08:13:56;;;;;;;90.47;52.90;;;11.40;99.90;;;;;;4955886;28;20106;-78
2022/03/24 08:16:25;;;;;;;92.93;52.80;;;11.50;99.90;;;;;;4924118;28;20085;-78
2022/03/24 08:18:53;;;;;;;87.53;53.67;;;11.60;99.90;;;;;;4939584;28;20110;-78
2022/03/24 08:21:27;;;;;;;89.95;50.47;;;11.70;99.90;;;;;;4941767;28;20046;-78
2022/03/24 08:23:53;;;;;;;91.55;54.33;;;11.90;99.90;;;;;;4956357;28;20051;-78
2022/03/24 08:26:20;;;;;;;86.70;53.13;;;12.00;99.90;;;;;;4956316;28;20097;-78
2022/03/24 08:28:48;;;;;;;82.35;49.80;;;12.00;99.90;;;;;;4973047;28;20046;-78
2022/03/24 08:31:14;;;;;;;87.95;51.20;;;12.10;99.90;;;;;;4954989;28;20055;-78
2022/03/24 08:33:40;;;;;;;79.43;47.63;;;12.30;99.90;;;;;;4955706;28;20054;-78
2022/03/24 08:36:07;;;;;;;80.70;50.45;;;12.40;99.90;;;;;;4972926;28;20055;-78
2022/03/24 08:38:33;;;;;;;73.72;46.70;;;12.50;99.90;;;;;;4955804;28;20054;-78
2022/03/24 08:41:03;;;;;;;77.22;44.17;;;12.50;99.90;;;;;;4955779;28;20082;-78
2022/03/24 08:43:29;;;;;;;75.28;42.70;;;12.70;99.90;;;;;;4969793;28;20093;-78
2022/03/24 08:45:55;;;;;;;69.85;45.33;;;12.80;99.90;;;;;;4954203;28;20047;-77
2022/03/24 08:48:21;;;;;;;416.65;92.72;;;12.90;99.90;;;;;;4969917;28;20065;-78
2022/03/24 08:50:47;;;;;;;197.18;58.88;;;13.00;99.90;;;;;;4955335;28;20409;-77
2022/03/24 08:53:13;;;;;;;86.75;42.40;;;13.00;99.90;;;;;;4940072;28;20137;-77
2022/03/24 08:55:39;;;;;;;68.57;41.70;;;13.20;99.90;;;;;;4942216;28;20051;-77
2022/03/24 08:58:04;;;;;;;61.40;38.83;;;13.30;99.90;;;;;;4961088;28;20533;-77
2022/03/24 09:00:30;;;;;;;62.13;39.55;;;13.50;99.90;;;;;;4978403;28;20074;-78
2022/03/24 09:02:56;;;;;;;64.95;40.13;;;13.60;99.60;;;;;;4977584;28;20144;-77
2022/03/24 09:05:23;;;;;;;62.30;40.42;;;13.70;99.10;;;;;;4955363;28;20049;-77
2022/03/24 09:07:49;;;;;;;57.85;40.03;;;13.80;98.60;;;;;;4955029;28;20109;-78
2022/03/24 09:10:16;;;;;;;67.22;44.20;;;13.90;98.70;;;;;;4954951;28;20055;-77
2022/03/24 09:12:45;;;;;;;63.97;40.53;;;14.00;98.80;;;;;;4972805;28;20050;-77
2022/03/24 09:15:12;;;;;;;84.38;43.95;;;14.10;99.20;;;;;;4970532;28;20054;-77
2022/03/24 09:17:39;;;;;;;63.55;43.80;;;14.30;99.30;;;;;;4955204;28;20415;-77
2022/03/24 09:20:25;;;;;;;64.85;44.60;;;14.50;99.20;;;;;;4956625;28;20523;-77
2022/03/24 09:22:52;;;;;;;68.07;45.60;;;14.40;98.60;;;;;;4971382;28;20047;-77
2022/03/24 09:25:21;;;;;;;63.15;43.47;;;14.50;98.40;;;;;;4970519;28;20051;-77
2022/03/24 09:27:48;;;;;;;66.70;44.75;;;14.60;98.30;;;;;;4954624;28;20113;-77
2022/03/24 09:30:18;;;;;;;79.38;47.40;;;14.80;98.70;;;;;;4923140;28;20051;-77
2022/03/24 09:32:45;;;;;;;68.20;46.88;;;14.90;98.20;;;;;;4958588;28;20058;-77
2022/03/24 09:35:14;;;;;;;71.20;47.40;;;15.00;97.90;;;;;;4958301;28;20058;-77
2022/03/24 09:37:41;;;;;;;68.45;47.35;;;15.20;97.60;;;;;;4957930;28;20061;-76
2022/03/24 09:40:09;;;;;;;70.55;49.35;;;15.30;97.50;;;;;;4958789;28;20082;-76
2022/03/24 09:42:41;;;;;;;69.68;46.95;;;15.40;97.40;;;;;;4958328;28;20199;-77
2022/03/24 09:45:09;;;;;;;80.38;47.30;;;15.30;97.70;;;;;;4958251;28;20054;-76
2022/03/24 09:47:35;;;;;;;73.60;49.55;;;15.40;97.60;;;;;;4957853;28;20137;-76
2022/03/24 09:50:04;;;;;;;79.35;49.80;;;15.50;97.60;;;;;;4958037;28;20047;-77
2022/03/24 09:52:39;;;;;;;68.50;46.95;;;15.60;97.20;;;;;;4945311;28;20129;-77
2022/03/24 09:55:09;;;;;;;77.65;48.70;;;15.80;97.40;;;;;;4973656;28;20054;-77
2022/03/24 09:57:36;;;;;;;69.75;49.20;;;15.90;96.70;;;;;;4957755;28;20046;-76
2022/03/24 10:00:07;;;;;;;67.82;45.30;;;16.00;96.00;;;;;;4974390;28;20046;-77
2022/03/24 10:02:33;;;;;;;68.82;47.20;;;16.10;95.70;;;;;;4958189;28;20047;-76
2022/03/24 10:05:10;;;;;;;65.38;46.80;;;16.30;94.90;;;;;;4959523;28;20097;-76
2022/03/24 10:07:46;;;;;;;69.22;46.13;;;16.40;94.30;;;;;;4942224;28;20068;-77
2022/03/24 10:10:25;;;;;;;65.72;45.38;;;16.50;93.90;;;;;;4958066;28;20051;-77
2022/03/24 10:12:51;;;;;;;73.05;46.95;;;16.60;92.90;;;;;;4942427;28;20055;-78
2022/03/24 10:15:20;;;;;;;76.03;44.22;;;16.60;92.30;;;;;;4975524;28;20055;-76
2022/03/24 10:17:54;;;;;;;65.47;44.42;;;16.80;91.50;;;;;;4957316;28;20050;-76
2022/03/24 10:20:41;;;;;;;69.30;45.38;;;16.90;81.70;;;;;;4943702;28;20101;-76
2022/03/24 10:23:07;;;;;;;66.88;45.15;;;16.80;82.70;;;;;;4981910;28;20051;-76
2022/03/24 10:25:37;;;;;;;63.92;44.60;;;17.00;85.40;;;;;;4965625;28;20124;-76
2022/03/24 10:28:08;;;;;;;63.28;44.13;;;17.20;80.70;;;;;;4984085;28;20514;-76
2022/03/24 10:30:47;;;;;;;62.33;44.22;;;17.40;78.60;;;;;;4958380;28;20058;-76
2022/03/24 10:33:37;;;;;;;64.80;44.25;;;17.70;71.60;;;;;;4957260;28;20053;-76
2022/03/24 10:36:17;;;;;;;65.43;44.10;;;17.80;69.10;;;;;;4942234;28;20055;-76
2022/03/24 10:38:49;;;;;;;63.58;43.20;;;18.00;67.50;;;;;;4957521;28;20129;-76
2022/03/24 10:41:23;;;;;;;64.60;42.42;;;18.20;64.90;;;;;;4957400;28;20059;-76
2022/03/24 10:43:51;;;;;;;71.00;46.13;;;18.40;65.50;;;;;;4941027;28;20055;-76
2022/03/24 10:46:20;;;;;;;61.20;42.05;;;18.50;62.70;;;;;;4940653;28;20057;-76
2022/03/24 10:48:53;;;;;;;63.65;45.25;;;18.60;61.50;;;;;;4940992;28;20054;-76
2022/03/24 10:51:47;;;;;;;60.67;42.97;;;18.80;59.30;;;;;;4956708;28;20129;-77
2022/03/24 10:54:35;;;;;;;65.32;45.22;;;19.00;55.50;;;;;;4940897;28;20053;-77
2022/03/24 10:57:07;;;;;;;60.30;44.63;;;19.00;59.00;;;;;;4957771;28;20047;-76
2022/03/24 11:00:04;;;;;;;76.40;48.67;;;19.10;59.50;;;;;;4974350;28;20050;-75
2022/03/24 11:02:31;;;;;;;66.32;46.83;;;19.20;56.70;;;;;;4958728;28;20066;-76
2022/03/24 11:05:02;;;;;;;62.72;44.53;;;19.10;56.00;;;;;;4941052;28;20125;-75
2022/03/24 11:07:28;;;;;;;65.03;47.15;;;19.20;55.00;;;;;;4940778;28;20051;-76
2022/03/24 11:09:54;;;;;;;66.35;48.40;;;19.40;55.60;;;;;;4956698;28;20055;-75
2022/03/24 11:12:36;;;;;;;63.92;46.92;;;19.70;53.50;;;;;;4940755;28;20525;-77
2022/03/24 11:15:05;;;;;;;65.13;47.22;;;19.90;52.40;;;;;;4957441;28;20050;-76
2022/03/24 11:17:38;;;;;;;67.90;49.38;;;20.40;51.10;;;;;;4941167;28;20050;-76
2022/03/24 11:20:13;;;;;;;70.63;50.13;;;20.40;50.30;;;;;;4960152;28;20058;-76
2022/03/24 11:22:52;;;;;;;66.93;49.70;;;20.50;50.10;;;;;;4968430;28;20062;-75
2022/03/24 11:25:24;;;;;;;75.03;52.15;;;20.50;51.40;;;;;;4964667;28;20050;-76
2022/03/24 11:27:55;;;;;;;75.28;52.80;;;20.50;50.90;;;;;;4942593;28;20059;-75
2022/03/24 11:30:25;;;;;;;76.53;52.63;;;20.30;50.40;;;;;;4974072;28;20054;-75
2022/03/24 11:32:54;;;;;;;73.45;52.90;;;20.30;51.80;;;;;;4956258;28;20617;-75
2022/03/24 11:35:21;;;;;;;67.03;51.47;;;20.30;51.50;;;;;;4956129;28;20401;-75
2022/03/24 11:37:50;;;;;;;71.95;54.45;;;20.40;53.20;;;;;;4940682;28;20062;-75
2022/03/24 11:40:24;;;;;;;71.60;52.10;;;20.60;51.90;;;;;;4956078;28;20055;-76
2022/03/24 11:42:53;;;;;;;76.93;54.80;;;21.00;52.50;;;;;;4956334;28;20450;-76
2022/03/24 11:45:25;;;;;;;67.53;52.17;;;21.30;51.40;;;;;;4956004;28;20050;-76
2022/03/24 11:48:12;;;;;;;69.95;51.72;;;21.80;52.40;;;;;;4953665;28;20058;-76
2022/03/24 11:50:48;;;;;;;65.72;51.28;;;22.40;49.30;;;;;;4970876;28;20058;-76
2022/03/24 11:53:29;;;;;;;70.00;51.65;;;22.70;48.30;;;;;;4973377;28;20053;-75
2022/03/24 11:56:01;;;;;;;71.63;51.75;;;22.90;45.70;;;;;;4955197;28;20503;-71
2022/03/24 11:58:59;;;;;;;68.85;53.05;;;23.20;44.90;;;;;;4955214;28;20419;-73
2022/03/24 12:01:35;;;;;;;67.75;52.63;;;23.60;40.80;;;;;;4973260;28;20073;-79
2022/03/24 12:04:10;;;;;;;74.82;54.72;;;23.20;41.10;;;;;;4955690;28;20142;-71
2022/03/24 12:06:55;;;;;;;70.03;52.28;;;23.10;40.20;;;;;;4973355;28;20051;-74
2022/03/24 12:09:54;;;;;;;73.53;53.42;;;24.10;41.80;;;;;;4937152;29;20110;-74
2022/03/24 12:12:26;;;;;;;75.20;53.03;;;24.70;38.50;;;;;;4935427;29;20396;-75
2022/03/24 12:15:22;;;;;;;73.85;52.35;;;25.20;37.80;;;;;;4935439;29;20054;-73
2022/03/24 12:18:05;;;;;;;67.20;51.90;;;24.40;35.60;;;;;;4951763;29;20101;-82
2022/03/24 12:20:46;;;;;;;71.63;51.40;;;24.40;36.70;;;;;;4935579;29;20047;-75
2022/03/24 12:23:15;;;;;;;70.05;50.50;;;24.60;35.30;;;;;;4935629;29;20054;-70
2022/03/24 12:25:41;;;;;;;69.80;49.67;;;25.30;35.70;;;;;;4936670;29;20054;-71
2022/03/24 12:28:32;;;;;;;66.72;49.08;;;26.30;35.00;;;;;;4951477;29;20621;-69
2022/03/24 12:31:08;;;;;;;66.03;48.47;;;27.30;34.90;;;;;;4935924;29;20660;-71
2022/03/24 12:33:49;;;;;;;169.70;57.72;;;26.90;32.60;;;;;;4935339;29;20069;-69
2022/03/24 12:36:39;;;;;;;70.10;51.03;;;27.60;33.80;;;;;;4935156;29;20266;-71
2022/03/24 12:39:08;;;;;;;67.25;51.75;;;28.20;34.50;;;;;;4919098;29;20043;-72
2022/03/24 12:41:35;;;;;;;61.80;48.22;;;28.30;33.30;;;;;;4941397;28;20058;-73
2022/03/24 12:44:04;;;;;;;68.00;48.85;;;28.70;33.30;;;;;;4973704;28;20062;-70
2022/03/24 12:46:39;;;;;;;66.93;50.40;;;29.20;32.70;;;;;;4955550;28;20062;-71
2022/03/24 12:49:25;;;;;;;60.20;48.25;;;29.60;31.80;;;;;;4951812;28;20055;-73